createdAt,value
2023-04-17T00:01:14.980Z,8.53
2023-04-17T00:03:41.948Z,7.90
2023-04-17T00:06:09.090Z,9.60
2023-04-17T00:08:35.958Z,8.83
2023-04-17T00:11:07.566Z,9.40
2023-04-17T00:13:35.790Z,10.37
2023-04-17T00:16:02.977Z,8.63
2023-04-17T00:18:29.992Z,8.47
2023-04-17T00:20:57.250Z,9.13
2023-04-17T00:23:24.348Z,8.40
2023-04-17T00:25:51.155Z,8.53
2023-04-17T00:28:18.372Z,9.87
2023-04-17T00:30:45.214Z,9.13
2023-04-17T00:33:12.048Z,11.33
2023-04-17T00:35:38.900Z,10.10
2023-04-17T00:38:05.826Z,10.20
2023-04-17T00:40:32.606Z,10.27
2023-04-17T00:43:03.007Z,10.20
2023-04-17T00:45:30.736Z,9.17
2023-04-17T00:47:59.182Z,11.53
2023-04-17T00:50:29.277Z,10.93
2023-04-17T00:52:56.092Z,9.07
2023-04-17T00:55:22.938Z,9.40
2023-04-17T00:57:49.819Z,9.10
2023-04-17T01:00:18.147Z,9.03
2023-04-17T01:02:45.915Z,8.93
2023-04-17T01:05:13.019Z,9.43
2023-04-17T01:07:41.374Z,9.40
2023-04-17T01:10:08.537Z,10.73
2023-04-17T01:12:35.362Z,10.30
2023-04-17T01:15:02.405Z,11.17
2023-04-17T01:17:29.421Z,10.93
2023-04-17T01:19:57.373Z,10.73
2023-04-17T01:22:24.496Z,10.83
2023-04-17T01:24:51.317Z,12.73
2023-04-17T01:27:18.236Z,9.97
2023-04-17T01:29:45.442Z,12.33
2023-04-17T01:32:12.293Z,13.17
2023-04-17T01:34:39.101Z,14.07
2023-04-17T01:37:07.101Z,13.63
2023-04-17T01:39:33.986Z,15.20
2023-04-17T01:42:01.038Z,15.40
2023-04-17T01:44:27.932Z,15.80
2023-04-17T01:46:54.702Z,14.00
2023-04-17T01:49:21.530Z,13.50
2023-04-17T01:51:48.374Z,13.63
2023-04-17T01:54:18.113Z,15.73
2023-04-17T01:56:44.897Z,18.33
2023-04-17T01:59:11.925Z,17.27
2023-04-17T02:01:38.947Z,16.10
2023-04-17T02:04:05.853Z,15.30
2023-04-17T02:06:33.128Z,15.83
2023-04-17T02:08:59.925Z,15.47
2023-04-17T02:11:26.744Z,15.93
2023-04-17T02:13:53.739Z,15.83
2023-04-17T02:16:21.895Z,17.63
2023-04-17T02:18:49.951Z,17.10
2023-04-17T02:21:16.789Z,18.00
2023-04-17T02:23:43.912Z,18.40
2023-04-17T02:26:10.756Z,17.50
2023-04-17T02:28:37.572Z,19.17
2023-04-17T02:31:08.745Z,19.23
2023-04-17T02:33:36.865Z,20.23
2023-04-17T02:36:04.887Z,22.67
2023-04-17T02:38:31.840Z,20.50
2023-04-17T02:40:58.908Z,21.77
2023-04-17T02:43:25.740Z,22.23
2023-04-17T02:45:53.578Z,22.53
2023-04-17T02:48:20.366Z,22.43
2023-04-17T02:50:47.209Z,21.23
2023-04-17T02:53:14.009Z,22.73
2023-04-17T02:55:40.969Z,22.77
2023-04-17T02:58:08.275Z,22.87
2023-04-17T03:00:35.141Z,22.93
2023-04-17T03:03:03.425Z,25.60
2023-04-17T03:05:30.676Z,25.27
2023-04-17T03:08:00.460Z,25.40
2023-04-17T03:10:27.267Z,25.00
2023-04-17T03:12:54.327Z,25.37
2023-04-17T03:15:21.248Z,25.37
2023-04-17T03:17:48.073Z,24.80
2023-04-17T03:20:16.136Z,24.37
2023-04-17T03:22:43.053Z,24.63
2023-04-17T03:25:10.383Z,26.10
2023-04-17T03:27:38.710Z,26.40
2023-04-17T03:30:06.376Z,27.13
2023-04-17T03:32:33.352Z,28.03
2023-04-17T03:35:00.482Z,28.17
2023-04-17T03:37:27.288Z,27.27
2023-04-17T03:39:55.683Z,27.20
2023-04-17T03:42:22.492Z,25.13
2023-04-17T03:44:49.329Z,26.03
2023-04-17T03:47:16.149Z,25.97
2023-04-17T03:49:42.940Z,28.60
2023-04-17T03:52:09.793Z,27.07
2023-04-17T03:54:36.842Z,26.03
2023-04-17T03:57:03.933Z,27.87
2023-04-17T03:59:33.026Z,27.40
2023-04-17T04:02:00.152Z,29.97
2023-04-17T04:04:27.379Z,29.47
2023-04-17T04:06:57.541Z,27.97
2023-04-17T04:09:25.581Z,28.13
2023-04-17T04:11:52.430Z,26.20
2023-04-17T04:14:19.392Z,28.50
2023-04-17T04:16:47.221Z,29.90
2023-04-17T04:19:14.280Z,29.47
2023-04-17T04:21:42.334Z,30.53
2023-04-17T04:24:10.168Z,29.20
2023-04-17T04:26:38.009Z,29.10
2023-04-17T04:29:05.001Z,30.00
2023-04-17T04:31:32.225Z,30.83
2023-04-17T04:33:59.415Z,29.73
2023-04-17T04:36:30.160Z,30.03
2023-04-17T04:39:00.998Z,30.53
2023-04-17T04:41:30.163Z,29.63
2023-04-17T04:43:56.941Z,29.50
2023-04-17T04:46:23.787Z,30.43
2023-04-17T04:48:50.672Z,29.10
2023-04-17T04:51:19.193Z,27.90
2023-04-17T04:53:46.233Z,28.93
2023-04-17T04:56:14.014Z,28.97
2023-04-17T04:58:40.902Z,28.30
2023-04-17T05:01:07.778Z,28.60
2023-04-17T05:03:34.864Z,27.67
2023-04-17T05:06:01.896Z,28.47
2023-04-17T05:08:28.728Z,30.80
2023-04-17T05:10:55.824Z,30.03
2023-04-17T05:13:22.636Z,28.40
2023-04-17T05:15:49.595Z,27.90
2023-04-17T05:18:16.456Z,28.47
2023-04-17T05:20:43.281Z,27.00
2023-04-17T05:23:10.138Z,28.77
2023-04-17T05:25:36.997Z,29.07
2023-04-17T05:28:03.826Z,27.87
2023-04-17T05:30:30.706Z,29.17
2023-04-17T05:32:58.664Z,28.90
2023-04-17T05:35:25.854Z,28.00
2023-04-17T05:37:53.085Z,27.17
2023-04-17T05:40:20.005Z,27.37
2023-04-17T05:42:46.936Z,26.40
2023-04-17T05:45:14.636Z,25.40
2023-04-17T05:55:51.085Z,18.75
2023-04-17T06:02:09.138Z,23.35
2023-04-17T06:20:18.095Z,22.55
2023-04-17T06:26:36.781Z,21.70
2023-04-17T06:46:52.717Z,20.23
2023-04-17T07:05:01.274Z,20.85
2023-04-17T07:11:19.757Z,23.80
2023-04-17T07:29:27.390Z,28.20
2023-04-17T07:35:45.877Z,25.10
2023-04-17T07:53:56.048Z,24.35
2023-04-17T08:00:14.912Z,26.95
2023-04-17T08:18:22.202Z,24.15
2023-04-17T08:24:40.713Z,24.77
2023-04-17T08:42:48.331Z,26.58
2023-04-17T08:49:18.991Z,26.63
2023-04-17T09:07:30.746Z,23.90
2023-04-17T09:13:49.222Z,23.83
2023-04-17T09:32:14.203Z,24.08
2023-04-17T09:38:40.064Z,26.80
2023-04-17T09:56:49.930Z,23.63
2023-04-17T10:03:08.531Z,24.63
2023-04-17T10:21:22.069Z,23.23
2023-04-17T10:27:40.565Z,24.65
2023-04-17T10:46:02.676Z,22.40
2023-04-17T10:52:36.004Z,20.60
2023-04-17T11:11:01.136Z,21.90
2023-04-17T11:17:21.456Z,24.27
2023-04-17T11:35:30.500Z,26.90
2023-04-17T11:41:50.148Z,26.92
2023-04-17T11:59:57.926Z,26.13
2023-04-17T12:06:16.823Z,32.05
2023-04-17T12:24:25.235Z,25.67
2023-04-17T12:30:43.998Z,25.45
2023-04-17T12:48:58.318Z,26.73
2023-04-17T12:55:28.803Z,24.85
2023-04-17T13:13:36.249Z,25.63
2023-04-17T13:19:54.704Z,25.83
2023-04-17T13:40:46.151Z,30.05
2023-04-17T13:51:43.314Z,32.95
2023-04-17T14:02:30.878Z,29.85
2023-04-17T14:07:31.106Z,25.30
2023-04-17T14:17:04.198Z,36.08
2023-04-17T14:19:31.195Z,36.65
2023-04-17T14:21:58.014Z,34.95
2023-04-17T14:24:24.868Z,37.65
2023-04-17T14:26:51.767Z,35.73
2023-04-17T14:29:18.665Z,36.98
2023-04-17T14:31:46.016Z,35.35
2023-04-17T14:34:42.392Z,37.60
2023-04-17T14:37:11.720Z,37.78
2023-04-17T14:39:38.700Z,35.50
2023-04-17T14:47:41.152Z,32.53
2023-04-17T14:50:08.680Z,32.23
2023-04-17T14:52:35.470Z,32.97
2023-04-17T14:55:02.293Z,30.30
2023-04-17T14:57:46.679Z,30.40
2023-04-17T15:00:14.132Z,30.80
2023-04-17T15:02:48.890Z,30.45
2023-04-17T15:05:20.414Z,34.50
2023-04-17T15:07:47.578Z,33.67
2023-04-17T15:10:14.810Z,31.70
2023-04-17T15:15:10.914Z,31.33
2023-04-17T15:17:37.868Z,31.47
2023-04-17T15:20:05.853Z,30.30
2023-04-17T15:22:32.883Z,28.73
2023-04-17T15:24:59.737Z,28.70
2023-04-17T15:37:48.561Z,27.63
2023-04-17T15:40:16.763Z,28.37
2023-04-17T15:42:43.775Z,27.67
2023-04-17T15:45:10.823Z,28.70
2023-04-17T15:47:37.776Z,28.20
2023-04-17T15:50:05.009Z,30.60
2023-04-17T15:52:31.856Z,30.60
2023-04-17T15:54:58.678Z,31.17
2023-04-17T15:57:25.501Z,28.80
2023-04-17T15:59:52.339Z,32.53
2023-04-17T16:02:19.284Z,30.97
2023-04-17T16:04:46.204Z,32.10
2023-04-17T16:07:14.121Z,32.63
2023-04-17T16:09:41.622Z,34.43
2023-04-17T16:12:09.963Z,33.77
2023-04-17T16:14:37.313Z,33.93
2023-04-17T16:17:04.324Z,33.23
2023-04-17T16:19:32.580Z,35.70
2023-04-17T16:21:59.607Z,36.30
2023-04-17T16:24:26.833Z,38.93
2023-04-17T16:27:01.108Z,37.47
2023-04-17T16:29:28.065Z,35.87
2023-04-17T16:31:55.123Z,38.30
2023-04-17T16:34:22.222Z,39.93
2023-04-17T16:36:49.685Z,36.73
2023-04-17T16:39:16.579Z,36.30
2023-04-17T16:41:43.667Z,37.73
2023-04-17T16:44:10.730Z,36.43
2023-04-17T16:46:52.135Z,36.40
2023-04-17T16:49:24.517Z,37.93
2023-04-17T16:51:51.316Z,36.83
2023-04-17T16:54:19.432Z,34.23
2023-04-17T16:56:47.707Z,36.03
2023-04-17T16:59:14.841Z,34.20
2023-04-17T17:01:41.806Z,34.67
2023-04-17T17:04:08.699Z,34.10
2023-04-17T17:06:35.633Z,35.20
2023-04-17T17:09:02.443Z,33.60
2023-04-17T17:11:30.250Z,34.50
2023-04-17T17:13:57.849Z,35.37
2023-04-17T17:16:24.836Z,35.20
2023-04-17T17:18:52.060Z,35.37
2023-04-17T17:21:18.974Z,34.27
2023-04-17T17:23:45.889Z,32.93
2023-04-17T17:26:12.823Z,33.27
2023-04-17T17:28:39.699Z,34.20
2023-04-17T17:31:10.157Z,34.47
2023-04-17T17:33:37.006Z,33.47
2023-04-17T17:36:03.944Z,34.40
2023-04-17T17:38:32.587Z,32.87
2023-04-17T17:40:59.704Z,32.80
2023-04-17T17:43:29.598Z,35.20
2023-04-17T17:45:56.459Z,34.13
2023-04-17T17:48:23.289Z,33.80
2023-04-17T17:50:57.131Z,34.00
2023-04-17T17:53:26.276Z,33.20
2023-04-17T17:55:54.407Z,35.00
2023-04-17T17:58:21.858Z,31.70
2023-04-17T18:00:49.415Z,31.53
2023-04-17T18:03:16.802Z,32.70
2023-04-17T18:05:44.319Z,32.40
2023-04-17T18:08:11.122Z,32.00
2023-04-17T18:10:38.050Z,34.37
2023-04-17T18:13:05.110Z,32.70
2023-04-17T18:15:31.948Z,32.23
2023-04-17T18:17:58.790Z,34.73
2023-04-17T18:20:25.749Z,33.40
2023-04-17T18:22:52.571Z,35.50
2023-04-17T18:25:19.601Z,33.50
2023-04-17T18:27:46.463Z,35.70
2023-04-17T18:30:14.246Z,35.27
2023-04-17T18:32:41.065Z,35.17
2023-04-17T18:35:08.394Z,34.20
2023-04-17T18:37:35.312Z,34.93
2023-04-17T18:40:02.152Z,33.33
2023-04-17T18:42:29.007Z,35.33
2023-04-17T18:44:55.846Z,36.40
2023-04-17T18:47:22.816Z,37.80
2023-04-17T18:49:52.714Z,36.20
2023-04-17T18:52:19.730Z,38.10
2023-04-17T18:54:46.580Z,38.87
2023-04-17T18:57:13.424Z,37.63
2023-04-17T18:59:41.450Z,38.63
2023-04-17T19:02:10.131Z,38.57
2023-04-17T19:04:36.995Z,40.00
2023-04-17T19:07:03.836Z,37.90
2023-04-17T19:09:30.727Z,40.23
2023-04-17T19:11:58.648Z,40.90
2023-04-17T19:14:25.620Z,40.13
2023-04-17T19:16:53.333Z,43.37
2023-04-17T19:19:20.426Z,43.20
2023-04-17T19:21:47.574Z,44.83
2023-04-17T19:24:14.529Z,46.63
2023-04-17T19:26:41.653Z,46.03
2023-04-17T19:29:08.476Z,42.43
2023-04-17T19:31:35.401Z,43.47
2023-04-17T19:34:02.316Z,45.00
2023-04-17T19:36:29.243Z,44.53
2023-04-17T19:38:59.149Z,46.87
2023-04-17T19:41:27.309Z,43.27
2023-04-17T19:43:54.295Z,43.03
2023-04-17T19:46:21.969Z,44.30
2023-04-17T19:48:49.574Z,43.03
2023-04-17T19:51:16.827Z,44.33
2023-04-17T19:53:44.027Z,44.80
2023-04-17T19:56:11.298Z,45.87
2023-04-17T19:58:38.476Z,44.63
2023-04-17T20:01:35.462Z,42.45
2023-04-17T20:04:02.492Z,45.77
2023-04-17T20:06:29.362Z,47.20
2023-04-17T20:08:58.438Z,48.97
2023-04-17T20:11:25.356Z,47.00
2023-04-17T20:13:52.377Z,47.27
2023-04-17T20:16:19.366Z,47.73
2023-04-17T20:18:46.239Z,48.60
2023-04-17T20:21:13.342Z,47.43
2023-04-17T20:23:40.727Z,46.47
2023-04-17T20:26:08.298Z,45.90
2023-04-17T20:28:35.196Z,44.70
2023-04-17T20:31:03.394Z,46.47
2023-04-17T20:33:30.429Z,46.85
2023-04-17T20:36:03.810Z,46.78
2023-04-17T20:38:33.154Z,44.31
2023-04-17T20:41:00.040Z,45.90
2023-04-17T20:43:26.825Z,43.95
2023-04-17T20:45:59.414Z,48.68
2023-04-17T20:48:36.735Z,49.15
2023-04-17T20:51:05.629Z,49.67
2023-04-17T21:01:17.710Z,38.70
2023-04-17T21:24:42.502Z,39.55
2023-04-17T21:31:10.147Z,42.78
2023-04-17T21:54:25.355Z,45.20
2023-04-17T22:38:59.970Z,42.33
2023-04-17T23:07:31.591Z,31.75
2023-04-17T23:13:15.231Z,33.15
2023-04-17T23:35:13.361Z,29.60
2023-04-17T23:52:27.911Z,29.95
